Logo AVAMET
Benvolgut visitant, si us plau, ingressa Recuperar contrasenya
AVAMET paisatges

Alacant IES Miguel Hdez. (Sant Blai)

Dades diàries. Acumulats / Últims 30 dies disponibles

Data Temperatura (°C) Humitat rel. (%) Pressió rel. (hPa) Vent (km/h) Precipitació
Mínima Mitjana Màxima Amplitud
tèrmica
Mínima Mitjana Màxima Mínima Mitjana Màxima Predom. Mitjana Ràfega
màxima
Total
(mm)
Índex-n
Mínima Mitjana Màxima Mínima Mitjana Màxima n
0 a 1
P0 max
mm 5'
Dades mensuals acumulades fins l'últim dia disponible
02/2020 8,0 11,7 15,1 15,6 16,4 21,0 28,2 20,2 18 60 82 1.021 1.025 1.032   3,3 35,4 0,0
Dades anuals acumulades fins l'últim dia disponible
2020 3,7 9,6 16,2 13,5 14,2 18,6 28,2 24,5 18 60 82 1.010 1.025 1.033   3,9 54,7 34,6
Últims 30 dies disponibles
16-02-2020 9,7     13,0     16,9 7,2 64 75 82 1.026 1.027 1.028 SSE 2,4 22,5 0,0
15-02-2020 9,6     13,4     17,6 8,0 53 69 78 1.024 1.026 1.028 SE 2,4 19,3 0,0
14-02-2020 11,9     15,6     20,8 8,9 40 57 75 1.023 1.024 1.025 SSE 2,0 32,2 0,0
13-02-2020 11,7     16,4     22,7 11,0 34 59 75 1.021 1.022 1.023 SO 3,1 32,2 0,0
12-02-2020 12,3     15,1     20,1 7,8 45 70 80 1.022 1.023 1.024 SE 2,5 22,5 0,0
11-02-2020 15,1     18,2     25,1 10,0 32 54 73 1.021 1.023 1.026 SE 2,4 30,6 0,0
10-02-2020 11,5     17,2     23,2 11,7 33 52 77 1.026 1.029 1.031 O 6,0 30,6 0,0
09-02-2020 11,8     14,6     17,0 5,2 56 68 78 1.026 1.029 1.032 S 3,0 22,5 0,0
08-02-2020 8,3     13,5     20,3 12,0 43 65 75 1.023 1.024 1.027 SE 2,8 22,5 0,0
07-02-2020 9,2     12,4     16,4 7,2 50 62 71 1.023 1.024 1.025 SSO 2,2 20,9 0,0
06-02-2020 8,0     11,8     17,3 9,3 48 63 74 1.025 1.026 1.028 ESE 2,8 30,6 0,0
05-02-2020 12,1     13,9     16,5 4,4 50 65 77 1.026 1.028 1.030 ENE 2,9 30,6 0,0
04-02-2020 13,8     20,2     28,2 14,4 18 40 69 1.021 1.024 1.027 SO 5,5 27,4 0,0
03-02-2020 13,1     17,1     24,5 11,4 32 55 68 1.027 1.028 1.029 S 1,7 20,9 0,0
02-02-2020 14,2     18,5     25,7 11,5 30 55 69 1.025 1.027 1.029 SO 4,0 35,4 0,0
01-02-2020 15,0     19,3     23,5 8,5 41 52 68 1.021 1.023 1.026 O 7,3 35,4 0,0
31-01-2020 14,9     17,9     21,8 6,9 40 48 56 1.021 1.022 1.023 ONO 7,3 41,8 0,0
30-01-2020 14,5     17,6     23,0 8,5 27 47 58 1.020 1.022 1.023 O 5,5 41,8 0,0
29-01-2020 16,2     18,7     22,2 6,0 38 47 54 1.021 1.022 1.023 O 7,8 38,6 0,0
28-01-2020 11,8     15,6     20,1 8,3 44 50 57 1.021 1.022 1.023 O 8,3 32,2 0,0
27-01-2020 10,3     13,5     17,7 7,4 33 48 58 1.021 1.023 1.025 O 6,1 32,2 0,0
26-01-2020 8,8     13,2     17,8 9,0 36 57 77 1.018 1.021 1.025 O 5,4 32,2 0,0
25-01-2020 9,4     12,0     16,4 7,0 50 68 74 1.017 1.018 1.020 S 2,1 20,9 0,0
24-01-2020 8,0     11,8     16,7 8,7 56 67 75 1.019 1.021 1.022 ESE 2,6 22,5 0,0
23-01-2020 8,6     11,3     15,6 7,0 65 70 76 1.018 1.020 1.022 E 3,4 24,1 0,2
22-01-2020 9,6     12,6     17,7 8,1 44 63 75 1.015 1.017 1.018 ESE 3,2 43,5 0,0
21-01-2020 8,7     12,5     16,6 7,9 65 72 82 1.010 1.013 1.017 E 6,7 51,5 12,2 0,20
20-01-2020 7,7     10,2     14,2 6,5 53 69 80 1.012 1.015 1.017 ENE 8,9 54,7 21,4 0,54 2,60
19-01-2020 8,7     11,9     14,2 5,5 45 55 66 1.012 1.015 1.020 S 9,6 54,7 0,8
18-01-2020 11,4     13,4     16,4 5,0 45 53 67 1.020 1.027 1.031 SO 3,3 35,4 0,0
Últims 13 mesos disponibles
01/2020 3,7 8,5 16,2 12,3 14,2 17,3 23,0 19,3 45 60 72 1.013 1.024 1.032 O 4,2 54,7 34,6
12/2019 7,9 11,3 17,0 14,6 14,2 19,4 24,9 17,0 32 58 74 1.005 1.018 1.032 SO 4,7 70,8 49,2
11/2019 8,0 13,1 21,2 16,3 14,3 20,3 28,7 20,7 32 46 76 1.000 1.011 1.018 O 7,9 67,6 20,0
10/2019 12,0 16,5 21,4 20,5 16,6 24,9 30,9 18,9 38 59 74 1.008 1.016 1.021 OSO 3,5 38,6 34,2
09/2019 16,1 20,9 24,6 24,1 23,3 28,0 32,6 16,5 47 64 76 1.009 1.017 1.021 S 4,0 53,1 126,0
08/2019 19,6 23,1 25,9 26,5 28,1 30,0 36,0 16,4 44 63 73 1.010 1.015 1.019 SSE 4,0 38,6 70,4
07/2019 21,4 23,8 26,4 27,1 28,2 30,8 35,1 13,7 33 54 69 1.006 1.013 1.019 ESE 4,5 41,8 0,0
06/2019 15,4 19,3 24,7 23,1 23,0 26,9 34,1 18,7 35 55 72 1.008 1.014 1.022 SSE 4,4 45,1 0,0
05/2019 12,4 15,9 20,0 19,3 19,1 23,1 29,6 17,2 37 57 71 1.005 1.015 1.024 ESE 4,6 57,9 0,2
04/2019 9,8 12,8 16,0 16,0 15,2 20,0 28,2 18,4 34 57 77 999 1.012 1.025 ESE 5,6 77,2 114,6
03/2019 8,1 10,7 14,4 14,8 13,4 19,4 28,1 20,0 21 50 69 1.010 1.022 1.030 N 3,8 46,7 15,0
02/2019 5,4 8,3 11,8 12,8 14,3 17,9 22,2 16,8 23 51 64 996 1.024 1.032 N 4,3 62,8 1,6
01/2019 3,2 8,4 13,9 12,3 13,4 17,5 21,8 18,6 29 47 68 1.004 1.018 1.030 N 5,3 59,5 3,0
Tots els anys disponibles
2019 3,2 15,4 26,4 18,9 13,4 23,2 36,0 32,8 21 55 77 996 1.016 1.032 N 4,7 77,2 419,4
2018 4,4 15,7 27,9 19,0 10,7 23,0 34,9 30,5 19 55 76 993 1.015 1.034 N 3,9 78,9 265,6
2017 3,6 16,7 28,4 20,8 12,7 24,9 35,4 31,8 45 53 61 1.001 1.016 1.023 5,3 60,0 201,4
Temperatura (°C)
Humitat relativa (%)
Velocitat del vent i ràfega màxima (km/h)
Direcció del vent (°)
Precipitació (mm)
Nota sobre les dades: s'avisa a l'usuari de la provisionalitat i no oficialitat d'aquestes dades
Logo AVAMET blanc
Web allotjada a Sollutia
Llicència de Creative CommonsLa web d'AVAMET i els seus continguts estan subjectes a una llicència de
Reconeixement - No Comercial - Compartir igual
Últimes estacions:  Sorita (AVAMET), Massalavés - Ajuntament (Soci/Inforatge), Albuixech - Polígon (Inforatge), La Torre d'en Besora (Ajuntament soci), Xixona - Sogorb Barranc Blanc (Soci), Pedreguer - Patronat (Soci) - - -